sensor_id;sensor_type;location;lat;lon;timestamp;pressure;altitude;pressure_sealevel;temperature;humidity
8051;BME280;4068;42.158;24.732;2023-08-01T00:01:01;99130.47;;;23.04;100.00
8051;BME280;4068;42.158;24.732;2023-08-01T00:03:27;99141.31;;;23.04;100.00
8051;BME280;4068;42.158;24.732;2023-08-01T00:05:53;99140.66;;;23.08;100.00
8051;BME280;4068;42.158;24.732;2023-08-01T00:08:20;99133.81;;;23.06;100.00
8051;BME280;4068;42.158;24.732;2023-08-01T00:10:46;99144.00;;;23.04;100.00
8051;BME280;4068;42.158;24.732;2023-08-01T00:13:11;99133.84;;;22.99;100.00
8051;BME280;4068;42.158;24.732;2023-08-01T00:15:37;99133.25;;;22.90;100.00
8051;BME280;4068;42.158;24.732;2023-08-01T00:18:03;99111.66;;;22.77;100.00
8051;BME280;4068;42.158;24.732;2023-08-01T00:20:29;99132.63;;;22.88;100.00
8051;BME280;4068;42.158;24.732;2023-08-01T00:22:54;99123.28;;;22.84;100.00
8051;BME280;4068;42.158;24.732;2023-08-01T00:25:20;99117.88;;;22.84;100.00
8051;BME280;4068;42.158;24.732;2023-08-01T00:27:45;99122.03;;;22.87;100.00
8051;BME280;4068;42.158;24.732;2023-08-01T00:30:11;99117.47;;;22.87;99.50
8051;BME280;4068;42.158;24.732;2023-08-01T00:32:37;99117.03;;;22.90;98.14
8051;BME280;4068;42.158;24.732;2023-08-01T00:35:03;99096.25;;;22.84;96.77
8051;BME280;4068;42.158;24.732;2023-08-01T00:37:29;99113.91;;;22.93;96.36
8051;BME280;4068;42.158;24.732;2023-08-01T00:39:55;99091.28;;;22.74;95.84
8051;BME280;4068;42.158;24.732;2023-08-01T00:42:20;99117.47;;;22.87;95.53
8051;BME280;4068;42.158;24.732;2023-08-01T00:44:46;99113.69;;;22.88;95.03
8051;BME280;4068;42.158;24.732;2023-08-01T00:47:13;99080.53;;;22.61;95.68
8051;BME280;4068;42.158;24.732;2023-08-01T00:49:39;99105.44;;;22.70;96.57
8051;BME280;4068;42.158;24.732;2023-08-01T00:52:05;99099.47;;;22.61;96.98
8051;BME280;4068;42.158;24.732;2023-08-01T00:54:30;99098.00;;;22.58;96.91
8051;BME280;4068;42.158;24.732;2023-08-01T00:57:04;99094.91;;;22.55;97.20
8051;BME280;4068;42.158;24.732;2023-08-01T00:59:30;99098.44;;;22.49;97.13
8051;BME280;4068;42.158;24.732;2023-08-01T01:01:55;99095.34;;;22.45;97.04
8051;BME280;4068;42.158;24.732;2023-08-01T01:04:21;99086.44;;;22.45;96.75
8051;BME280;4068;42.158;24.732;2023-08-01T01:06:57;99077.91;;;22.41;96.30
8051;BME280;4068;42.158;24.732;2023-08-01T01:09:28;99073.53;;;22.40;96.49
8051;BME280;4068;42.158;24.732;2023-08-01T01:11:53;99074.59;;;22.32;97.37
8051;BME280;4068;42.158;24.732;2023-08-01T01:14:19;99063.78;;;22.19;97.71
8051;BME280;4068;42.158;24.732;2023-08-01T01:16:44;99078.75;;;22.21;98.51
8051;BME280;4068;42.158;24.732;2023-08-01T01:19:10;99054.06;;;22.11;98.88
8051;BME280;4068;42.158;24.732;2023-08-01T01:21:37;99065.47;;;22.13;98.38
8051;BME280;4068;42.158;24.732;2023-08-01T01:24:05;99064.84;;;22.11;98.03
8051;BME280;4068;42.158;24.732;2023-08-01T01:26:33;99045.16;;;21.97;97.77
8051;BME280;4068;42.158;24.732;2023-08-01T01:28:59;99052.22;;;22.05;97.82
8051;BME280;4068;42.158;24.732;2023-08-01T01:31:25;99035.59;;;21.95;97.58
8051;BME280;4068;42.158;24.732;2023-08-01T01:33:52;99042.88;;;22.01;98.52
8051;BME280;4068;42.158;24.732;2023-08-01T01:36:18;99052.81;;;22.00;97.83
8051;BME280;4068;42.158;24.732;2023-08-01T01:38:43;99048.06;;;21.96;97.91
8051;BME280;4068;42.158;24.732;2023-08-01T01:41:08;99054.09;;;21.91;98.03
8051;BME280;4068;42.158;24.732;2023-08-01T01:43:34;99052.41;;;21.90;98.23
8051;BME280;4068;42.158;24.732;2023-08-01T01:45:59;99047.44;;;21.94;98.12
8051;BME280;4068;42.158;24.732;2023-08-01T01:48:25;99050.16;;;21.87;98.48
8051;BME280;4068;42.158;24.732;2023-08-01T01:50:50;99057.84;;;21.83;99.62
8051;BME280;4068;42.158;24.732;2023-08-01T01:53:15;99058.03;;;21.82;100.00
8051;BME280;4068;42.158;24.732;2023-08-01T01:55:42;99051.41;;;21.71;100.00
8051;BME280;4068;42.158;24.732;2023-08-01T01:58:07;99053.69;;;21.74;100.00
8051;BME280;4068;42.158;24.732;2023-08-01T02:00:33;99028.78;;;21.52;100.00
8051;BME280;4068;42.158;24.732;2023-08-01T02:02:58;99062.84;;;21.66;100.00
8051;BME280;4068;42.158;24.732;2023-08-01T02:05:23;99030.81;;;21.50;100.00
8051;BME280;4068;42.158;24.732;2023-08-01T02:07:49;99038.31;;;21.48;100.00
8051;BME280;4068;42.158;24.732;2023-08-01T02:10:14;99057.44;;;21.66;100.00
8051;BME280;4068;42.158;24.732;2023-08-01T02:12:40;99069.47;;;21.64;100.00
8051;BME280;4068;42.158;24.732;2023-08-01T02:15:05;99069.69;;;21.62;100.00
8051;BME280;4068;42.158;24.732;2023-08-01T02:17:31;99068.81;;;21.62;100.00
8051;BME280;4068;42.158;24.732;2023-08-01T02:19:56;99067.56;;;21.58;100.00
8051;BME280;4068;42.158;24.732;2023-08-01T02:22:24;99069.88;;;21.61;100.00
8051;BME280;4068;42.158;24.732;2023-08-01T02:24:49;99061.78;;;21.54;100.00
8051;BME280;4068;42.158;24.732;2023-08-01T02:27:15;99069.25;;;21.59;100.00
8051;BME280;4068;42.158;24.732;2023-08-01T02:29:40;99072.34;;;21.55;100.00
8051;BME280;4068;42.158;24.732;2023-08-01T02:32:06;99045.16;;;21.44;100.00
8051;BME280;4068;42.158;24.732;2023-08-01T02:34:32;99078.59;;;21.63;99.67
8051;BME280;4068;42.158;24.732;2023-08-01T02:36:57;99077.34;;;21.72;99.19
8051;BME280;4068;42.158;24.732;2023-08-01T02:39:22;99071.13;;;21.65;99.02
8051;BME280;4068;42.158;24.732;2023-08-01T02:41:48;99074.44;;;21.67;98.92
8051;BME280;4068;42.158;24.732;2023-08-01T02:44:13;99075.69;;;21.78;98.78
8051;BME280;4068;42.158;24.732;2023-08-01T02:46:39;99076.50;;;21.78;98.45
8051;BME280;4068;42.158;24.732;2023-08-01T02:49:04;99075.50;;;21.79;98.23
8051;BME280;4068;42.158;24.732;2023-08-01T02:51:30;99076.31;;;21.80;98.42
8051;BME280;4068;42.158;24.732;2023-08-01T02:53:55;99085.88;;;21.82;98.35
8051;BME280;4068;42.158;24.732;2023-08-01T02:56:20;99087.94;;;21.87;98.08
8051;BME280;4068;42.158;24.732;2023-08-01T02:58:46;99087.72;;;21.88;98.20
8051;BME280;4068;42.158;24.732;2023-08-01T03:01:11;99096.03;;;21.94;97.89
8051;BME280;4068;42.158;24.732;2023-08-01T03:03:37;99097.06;;;21.93;97.87
8051;BME280;4068;42.158;24.732;2023-08-01T03:06:02;99089.59;;;21.81;98.42
8051;BME280;4068;42.158;24.732;2023-08-01T03:08:28;99094.34;;;21.86;98.64
8051;BME280;4068;42.158;24.732;2023-08-01T03:10:54;99098.13;;;21.85;98.45
8051;BME280;4068;42.158;24.732;2023-08-01T03:13:20;99090.63;;;21.74;98.61
8051;BME280;4068;42.158;24.732;2023-08-01T03:15:45;99103.28;;;21.80;98.76
8051;BME280;4068;42.158;24.732;2023-08-01T03:18:11;99085.66;;;21.64;99.13
8051;BME280;4068;42.158;24.732;2023-08-01T03:20:36;99090.19;;;21.63;99.60
8051;BME280;4068;42.158;24.732;2023-08-01T03:23:02;99107.44;;;21.62;100.00
8051;BME280;4068;42.158;24.732;2023-08-01T03:25:28;99113.03;;;21.54;100.00
8051;BME280;4068;42.158;24.732;2023-08-01T03:27:53;99117.81;;;21.59;100.00
8051;BME280;4068;42.158;24.732;2023-08-01T03:30:20;99106.19;;;21.58;100.00
8051;BME280;4068;42.158;24.732;2023-08-01T03:32:46;99113.47;;;21.71;100.00
8051;BME280;4068;42.158;24.732;2023-08-01T03:35:12;99120.09;;;21.82;100.00
8051;BME280;4068;42.158;24.732;2023-08-01T03:37:39;99118.44;;;22.01;99.16
8051;BME280;4068;42.158;24.732;2023-08-01T03:40:06;99121.53;;;22.04;98.36
8051;BME280;4068;42.158;24.732;2023-08-01T03:42:35;99117.00;;;22.05;98.31
8051;BME280;4068;42.158;24.732;2023-08-01T03:45:00;99127.78;;;22.05;98.32
8051;BME280;4068;42.158;24.732;2023-08-01T03:47:26;99118.63;;;22.13;97.68
8051;BME280;4068;42.158;24.732;2023-08-01T03:49:51;99116.56;;;22.21;97.12
8051;BME280;4068;42.158;24.732;2023-08-01T03:52:17;99097.25;;;22.04;96.87
8051;BME280;4068;42.158;24.732;2023-08-01T03:54:42;99097.25;;;22.04;96.41
8051;BME280;4068;42.158;24.732;2023-08-01T03:57:07;99125.72;;;22.34;95.66
8051;BME280;4068;42.158;24.732;2023-08-01T03:59:33;99092.69;;;22.18;95.49
8051;BME280;4068;42.158;24.732;2023-08-01T04:01:58;99114.69;;;22.42;95.22
8051;BME280;4068;42.158;24.732;2023-08-01T04:04:24;99121.50;;;22.51;94.84
8051;BME280;4068;42.158;24.732;2023-08-01T04:06:49;99127.13;;;22.63;93.86
8051;BME280;4068;42.158;24.732;2023-08-01T04:09:15;99135.59;;;22.73;93.73
8051;BME280;4068;42.158;24.732;2023-08-01T04:11:40;99127.22;;;22.88;92.74
8051;BME280;4068;42.158;24.732;2023-08-01T04:14:05;99117.84;;;22.91;92.82
8051;BME280;4068;42.158;24.732;2023-08-01T04:16:31;99101.66;;;22.84;93.64
8051;BME280;4068;42.158;24.732;2023-08-01T04:18:56;99110.75;;;23.03;92.90
8051;BME280;4068;42.158;24.732;2023-08-01T04:21:22;99118.63;;;23.12;92.63
8051;BME280;4068;42.158;24.732;2023-08-01T04:23:47;99130.19;;;23.25;92.14
8051;BME280;4068;42.158;24.732;2023-08-01T04:26:13;99105.06;;;23.18;91.35
8051;BME280;4068;42.158;24.732;2023-08-01T04:28:38;99120.09;;;23.46;90.82
8051;BME280;4068;42.158;24.732;2023-08-01T04:31:03;99122.97;;;23.51;90.09
8051;BME280;4068;42.158;24.732;2023-08-01T04:33:29;99135.09;;;23.74;89.49
8051;BME280;4068;42.158;24.732;2023-08-01T04:35:54;99109.47;;;23.76;88.69
8051;BME280;4068;42.158;24.732;2023-08-01T04:38:20;99136.72;;;24.07;87.74
8051;BME280;4068;42.158;24.732;2023-08-01T04:40:45;99137.31;;;24.34;86.13
8051;BME280;4068;42.158;24.732;2023-08-01T04:43:11;99130.72;;;24.49;85.11
8051;BME280;4068;42.158;24.732;2023-08-01T04:45:37;99120.59;;;24.62;83.74
8051;BME280;4068;42.158;24.732;2023-08-01T04:48:03;99134.38;;;24.79;83.71
8051;BME280;4068;42.158;24.732;2023-08-01T04:50:28;99133.31;;;24.99;82.37
8051;BME280;4068;42.158;24.732;2023-08-01T04:52:54;99111.41;;;24.82;82.19
8051;BME280;4068;42.158;24.732;2023-08-01T04:55:19;99131.25;;;25.13;81.49
8051;BME280;4068;42.158;24.732;2023-08-01T04:57:45;99102.88;;;24.97;81.26
8051;BME280;4068;42.158;24.732;2023-08-01T05:00:11;99117.84;;;24.99;81.89
8051;BME280;4068;42.158;24.732;2023-08-01T05:02:37;99133.34;;;25.11;81.21
8051;BME280;4068;42.158;24.732;2023-08-01T05:05:02;99131.56;;;25.05;80.55
8051;BME280;4068;42.158;24.732;2023-08-01T05:07:29;99136.38;;;25.21;80.61
8051;BME280;4068;42.158;24.732;2023-08-01T05:09:54;99137.53;;;25.25;80.53
8051;BME280;4068;42.158;24.732;2023-08-01T05:12:20;99139.59;;;25.30;79.50
8051;BME280;4068;42.158;24.732;2023-08-01T05:14:45;99130.69;;;25.41;79.67
8051;BME280;4068;42.158;24.732;2023-08-01T05:17:10;99137.53;;;25.44;78.99
8051;BME280;4068;42.158;24.732;2023-08-01T05:19:36;99139.28;;;25.38;79.32
8051;BME280;4068;42.158;24.732;2023-08-01T05:22:01;99135.19;;;25.47;78.27
8051;BME280;4068;42.158;24.732;2023-08-01T05:24:27;99138.06;;;25.53;78.06
8051;BME280;4068;42.158;24.732;2023-08-01T05:26:53;99113.06;;;25.32;78.46
8051;BME280;4068;42.158;24.732;2023-08-01T05:29:18;99150.19;;;25.50;77.52
8051;BME280;4068;42.158;24.732;2023-08-01T05:31:44;99131.38;;;25.37;77.38
8051;BME280;4068;42.158;24.732;2023-08-01T05:34:09;99150.84;;;25.64;78.36
8051;BME280;4068;42.158;24.732;2023-08-01T05:36:34;99149.91;;;25.82;76.72
8051;BME280;4068;42.158;24.732;2023-08-01T05:39:00;99128.56;;;25.86;75.15
8051;BME280;4068;42.158;24.732;2023-08-01T05:41:25;99156.47;;;26.05;73.60
8051;BME280;4068;42.158;24.732;2023-08-01T05:43:52;99141.84;;;26.06;73.18
8051;BME280;4068;42.158;24.732;2023-08-01T05:46:18;99134.00;;;25.97;73.29
8051;BME280;4068;42.158;24.732;2023-08-01T05:48:43;99142.31;;;26.03;72.66
8051;BME280;4068;42.158;24.732;2023-08-01T05:51:09;99146.09;;;26.13;72.64
8051;BME280;4068;42.158;24.732;2023-08-01T05:53:34;99155.31;;;26.24;71.86
8051;BME280;4068;42.158;24.732;2023-08-01T05:56:00;99150.94;;;26.35;71.52
8051;BME280;4068;42.158;24.732;2023-08-01T05:58:25;99119.38;;;26.22;71.15
8051;BME280;4068;42.158;24.732;2023-08-01T06:00:50;99129.66;;;26.32;70.06
8051;BME280;4068;42.158;24.732;2023-08-01T06:03:16;99155.28;;;26.48;67.88
8051;BME280;4068;42.158;24.732;2023-08-01T06:05:42;99153.44;;;26.48;69.09
8051;BME280;4068;42.158;24.732;2023-08-01T06:08:08;99158.75;;;26.55;69.22
8051;BME280;4068;42.158;24.732;2023-08-01T06:10:34;99141.00;;;26.52;66.48
8051;BME280;4068;42.158;24.732;2023-08-01T06:12:59;99154.50;;;26.71;67.63
8051;BME280;4068;42.158;24.732;2023-08-01T06:15:25;99160.97;;;26.82;66.77
8051;BME280;4068;42.158;24.732;2023-08-01T06:17:50;99146.75;;;26.92;64.61
8051;BME280;4068;42.158;24.732;2023-08-01T06:20:16;99150.06;;;26.94;63.80
8051;BME280;4068;42.158;24.732;2023-08-01T06:22:41;99143.22;;;26.91;65.18
8051;BME280;4068;42.158;24.732;2023-08-01T06:25:08;99140.22;;;27.04;64.47
8051;BME280;4068;42.158;24.732;2023-08-01T06:27:33;99120.84;;;27.01;64.22
8051;BME280;4068;42.158;24.732;2023-08-01T06:29:59;99135.44;;;27.24;65.04
8051;BME280;4068;42.158;24.732;2023-08-01T06:32:25;99133.63;;;27.29;63.50
8051;BME280;4068;42.158;24.732;2023-08-01T06:34:50;99137.38;;;27.40;62.79
8051;BME280;4068;42.158;24.732;2023-08-01T06:37:15;99131.63;;;27.36;62.80
8051;BME280;4068;42.158;24.732;2023-08-01T06:39:41;99140.78;;;27.47;61.69
8051;BME280;4068;42.158;24.732;2023-08-01T06:42:06;99122.88;;;27.51;61.62
8051;BME280;4068;42.158;24.732;2023-08-01T06:44:32;99108.66;;;27.32;60.12
8051;BME280;4068;42.158;24.732;2023-08-01T06:46:57;99126.34;;;27.47;60.25
8051;BME280;4068;42.158;24.732;2023-08-01T06:49:23;99120.66;;;27.48;60.05
8051;BME280;4068;42.158;24.732;2023-08-01T06:51:48;99130.94;;;27.46;59.78
8051;BME280;4068;42.158;24.732;2023-08-01T06:54:14;99128.19;;;27.58;58.59
8051;BME280;4068;42.158;24.732;2023-08-01T06:56:39;99130.50;;;27.49;58.08
8051;BME280;4068;42.158;24.732;2023-08-01T06:59:04;99126.59;;;27.45;58.72
8051;BME280;4068;42.158;24.732;2023-08-01T07:01:30;99130.91;;;27.58;58.44
8051;BME280;4068;42.158;24.732;2023-08-01T07:03:58;99120.00;;;27.41;58.61
8051;BME280;4068;42.158;24.732;2023-08-01T07:06:23;99105.75;;;27.51;57.92
8051;BME280;4068;42.158;24.732;2023-08-01T07:08:50;99116.91;;;27.66;58.29
8051;BME280;4068;42.158;24.732;2023-08-01T07:11:15;99127.56;;;27.85;58.21
8051;BME280;4068;42.158;24.732;2023-08-01T07:13:40;99124.28;;;28.00;57.86
8051;BME280;4068;42.158;24.732;2023-08-01T07:16:06;99131.00;;;27.97;57.24
8051;BME280;4068;42.158;24.732;2023-08-01T07:18:31;99123.25;;;28.06;57.12
8051;BME280;4068;42.158;24.732;2023-08-01T07:21:01;99124.34;;;28.22;55.88
8051;BME280;4068;42.158;24.732;2023-08-01T07:23:27;99129.28;;;28.25;56.45
8051;BME280;4068;42.158;24.732;2023-08-01T07:25:52;99130.75;;;28.33;55.63
8051;BME280;4068;42.158;24.732;2023-08-01T07:28:18;99120.25;;;28.41;54.78
8051;BME280;4068;42.158;24.732;2023-08-01T07:30:43;99124.97;;;28.46;54.35
8051;BME280;4068;42.158;24.732;2023-08-01T07:33:09;99128.59;;;28.52;54.82
8051;BME280;4068;42.158;24.732;2023-08-01T07:35:34;99106.06;;;28.39;54.63
8051;BME280;4068;42.158;24.732;2023-08-01T07:37:59;99118.25;;;28.54;54.31
8051;BME280;4068;42.158;24.732;2023-08-01T07:40:25;99117.34;;;28.65;54.12
8051;BME280;4068;42.158;24.732;2023-08-01T07:42:50;99098.13;;;28.60;54.36
8051;BME280;4068;42.158;24.732;2023-08-01T07:45:16;99103.22;;;28.96;53.54
8051;BME280;4068;42.158;24.732;2023-08-01T07:47:41;99111.31;;;29.07;52.76
8051;BME280;4068;42.158;24.732;2023-08-01T07:50:07;99108.16;;;28.99;54.36
8051;BME280;4068;42.158;24.732;2023-08-01T07:52:32;99106.41;;;29.09;54.11
8051;BME280;4068;42.158;24.732;2023-08-01T07:54:58;99097.50;;;29.19;53.76
8051;BME280;4068;42.158;24.732;2023-08-01T07:57:23;99089.81;;;29.16;54.36
8051;BME280;4068;42.158;24.732;2023-08-01T07:59:49;99082.38;;;29.12;54.87
8051;BME280;4068;42.158;24.732;2023-08-01T08:02:14;99098.47;;;29.08;55.42
8051;BME280;4068;42.158;24.732;2023-08-01T08:04:40;99099.47;;;29.24;55.46
8051;BME280;4068;42.158;24.732;2023-08-01T08:07:05;99080.53;;;29.39;52.88
8051;BME280;4068;42.158;24.732;2023-08-01T08:09:30;99081.81;;;29.64;51.32
8051;BME280;4068;42.158;24.732;2023-08-01T08:11:56;99085.75;;;29.78;51.42
8051;BME280;4068;42.158;24.732;2023-08-01T08:14:22;99060.75;;;29.59;50.77
8051;BME280;4068;42.158;24.732;2023-08-01T08:16:48;99087.88;;;29.71;50.12
8051;BME280;4068;42.158;24.732;2023-08-01T08:19:14;99091.03;;;29.85;50.29
8051;BME280;4068;42.158;24.732;2023-08-01T08:21:40;99066.63;;;29.73;49.40
8051;BME280;4068;42.158;24.732;2023-08-01T08:24:05;99081.09;;;30.06;50.07
8051;BME280;4068;42.158;24.732;2023-08-01T08:26:31;99082.81;;;30.23;49.71
8051;BME280;4068;42.158;24.732;2023-08-01T08:28:59;99082.03;;;30.27;49.54
8051;BME280;4068;42.158;24.732;2023-08-01T08:31:24;99070.78;;;30.19;48.92
8051;BME280;4068;42.158;24.732;2023-08-01T08:33:50;99059.88;;;30.29;48.66
8051;BME280;4068;42.158;24.732;2023-08-01T08:36:15;99042.16;;;30.37;47.93
8051;BME280;4068;42.158;24.732;2023-08-01T08:38:41;99068.00;;;30.61;47.16
8051;BME280;4068;42.158;24.732;2023-08-01T08:41:11;99072.91;;;30.54;46.34
8051;BME280;4068;42.158;24.732;2023-08-01T08:43:39;99068.28;;;30.65;46.84
8051;BME280;4068;42.158;24.732;2023-08-01T08:46:08;99054.38;;;30.82;46.73
8051;BME280;4068;42.158;24.732;2023-08-01T08:48:35;99062.91;;;30.96;46.54
8051;BME280;4068;42.158;24.732;2023-08-01T08:51:02;99049.00;;;31.03;46.53
8051;BME280;4068;42.158;24.732;2023-08-01T08:53:30;99056.69;;;31.06;46.17
8051;BME280;4068;42.158;24.732;2023-08-01T08:55:56;99049.16;;;30.75;45.53
8051;BME280;4068;42.158;24.732;2023-08-01T08:58:22;99043.41;;;30.77;45.52
8051;BME280;4068;42.158;24.732;2023-08-01T09:00:47;99049.13;;;30.60;45.88
8051;BME280;4068;42.158;24.732;2023-08-01T09:03:13;99049.44;;;30.69;45.75
8051;BME280;4068;42.158;24.732;2023-08-01T09:05:54;99022.81;;;30.49;45.59
8051;BME280;4068;42.158;24.732;2023-08-01T09:08:27;99023.69;;;30.70;44.16
8051;BME280;4068;42.158;24.732;2023-08-01T09:10:53;99049.50;;;30.94;43.13
8051;BME280;4068;42.158;24.732;2023-08-01T09:13:19;99037.75;;;30.99;43.08
8051;BME280;4068;42.158;24.732;2023-08-01T09:15:45;99029.31;;;31.26;41.84
8051;BME280;4068;42.158;24.732;2023-08-01T09:18:11;99012.06;;;31.26;42.11
8051;BME280;4068;42.158;24.732;2023-08-01T09:20:48;99021.66;;;31.44;42.63
8051;BME280;4068;42.158;24.732;2023-08-01T09:23:14;99023.56;;;31.38;42.63
8051;BME280;4068;42.158;24.732;2023-08-01T09:25:41;99016.97;;;31.13;43.30
8051;BME280;4068;42.158;24.732;2023-08-01T09:28:20;99014.78;;;31.05;43.40
8051;BME280;4068;42.158;24.732;2023-08-01T09:30:54;99008.22;;;31.32;43.70
8051;BME280;4068;42.158;24.732;2023-08-01T09:33:23;99013.72;;;31.53;43.71
8051;BME280;4068;42.158;24.732;2023-08-01T09:35:52;99010.44;;;31.66;42.93
8051;BME280;4068;42.158;24.732;2023-08-01T09:38:18;99008.53;;;31.72;42.99
8051;BME280;4068;42.158;24.732;2023-08-01T09:40:44;99001.66;;;31.74;42.67
8051;BME280;4068;42.158;24.732;2023-08-01T09:43:11;99003.28;;;31.75;42.12
8051;BME280;4068;42.158;24.732;2023-08-01T09:45:37;98999.44;;;31.87;41.84
8051;BME280;4068;42.158;24.732;2023-08-01T09:48:03;98984.91;;;31.91;41.12
8051;BME280;4068;42.158;24.732;2023-08-01T09:50:29;98991.19;;;32.02;41.25
8051;BME280;4068;42.158;24.732;2023-08-01T09:52:54;98961.06;;;31.87;39.85
8051;BME280;4068;42.158;24.732;2023-08-01T09:55:28;98970.91;;;31.98;40.03
8051;BME280;4068;42.158;24.732;2023-08-01T09:57:57;98976.38;;;32.03;40.73
8051;BME280;4068;42.158;24.732;2023-08-01T10:00:28;98963.84;;;31.76;40.94
8051;BME280;4068;42.158;24.732;2023-08-01T10:02:59;98970.16;;;31.66;41.44
8051;BME280;4068;42.158;24.732;2023-08-01T10:05:28;98948.22;;;31.56;43.48
8051;BME280;4068;42.158;24.732;2023-08-01T10:07:55;98970.13;;;31.87;44.64
8051;BME280;4068;42.158;24.732;2023-08-01T10:10:23;98972.59;;;31.89;44.65
8051;BME280;4068;42.158;24.732;2023-08-01T10:12:50;98963.47;;;32.04;44.44
8051;BME280;4068;42.158;24.732;2023-08-01T10:15:17;98942.34;;;32.09;44.22
8051;BME280;4068;42.158;24.732;2023-08-01T10:17:43;98940.94;;;32.27;43.59
8051;BME280;4068;42.158;24.732;2023-08-01T10:20:10;98951.78;;;32.48;43.63
8051;BME280;4068;42.158;24.732;2023-08-01T10:22:36;98963.59;;;32.48;43.16
8051;BME280;4068;42.158;24.732;2023-08-01T10:25:03;98954.59;;;32.38;42.99
8051;BME280;4068;42.158;24.732;2023-08-01T10:27:29;98941.75;;;32.28;43.33
8051;BME280;4068;42.158;24.732;2023-08-01T10:29:59;98929.97;;;32.22;43.62
8051;BME280;4068;42.158;24.732;2023-08-01T10:34:56;98936.44;;;32.47;44.08
8051;BME280;4068;42.158;24.732;2023-08-01T10:37:21;98936.91;;;32.59;42.87
8051;BME280;4068;42.158;24.732;2023-08-01T10:39:56;98918.72;;;32.74;42.63
8051;BME280;4068;42.158;24.732;2023-08-01T10:42:22;98918.03;;;32.92;42.58
8051;BME280;4068;42.158;24.732;2023-08-01T10:44:47;98918.22;;;33.06;42.76
8051;BME280;4068;42.158;24.732;2023-08-01T10:47:13;98900.25;;;33.19;41.79
8051;BME280;4068;42.158;24.732;2023-08-01T10:49:43;98918.06;;;33.21;41.74
8051;BME280;4068;42.158;24.732;2023-08-01T10:52:17;98916.94;;;33.28;41.57
8051;BME280;4068;42.158;24.732;2023-08-01T10:55:13;98906.50;;;33.30;40.71
8051;BME280;4068;42.158;24.732;2023-08-01T10:57:47;98904.53;;;33.35;40.45
8051;BME280;4068;42.158;24.732;2023-08-01T11:00:16;98888.84;;;33.36;40.30
8051;BME280;4068;42.158;24.732;2023-08-01T11:02:51;98894.63;;;33.05;40.83
8051;BME280;4068;42.158;24.732;2023-08-01T11:05:17;98886.06;;;32.72;41.21
8051;BME280;4068;42.158;24.732;2023-08-01T11:07:53;98877.31;;;32.70;40.93
8051;BME280;4068;42.158;24.732;2023-08-01T11:10:20;98865.13;;;32.42;40.75
8051;BME280;4068;42.158;24.732;2023-08-01T11:12:45;98877.69;;;32.53;41.62
8051;BME280;4068;42.158;24.732;2023-08-01T11:15:12;98878.44;;;32.64;41.48
8051;BME280;4068;42.158;24.732;2023-08-01T11:17:39;98847.38;;;32.74;41.23
8051;BME280;4068;42.158;24.732;2023-08-01T11:20:09;98882.59;;;32.96;40.67
8051;BME280;4068;42.158;24.732;2023-08-01T11:22:36;98849.59;;;32.72;40.48
8051;BME280;4068;42.158;24.732;2023-08-01T11:25:03;98836.78;;;32.57;41.06
8051;BME280;4068;42.158;24.732;2023-08-01T11:27:29;98859.78;;;32.61;41.98
8051;BME280;4068;42.158;24.732;2023-08-01T11:29:55;98850.50;;;32.57;41.67
8051;BME280;4068;42.158;24.732;2023-08-01T11:32:21;98848.03;;;32.55;41.59
8051;BME280;4068;42.158;24.732;2023-08-01T11:34:46;98827.72;;;32.56;41.37
8051;BME280;4068;42.158;24.732;2023-08-01T11:37:18;98845.47;;;32.74;41.57
8051;BME280;4068;42.158;24.732;2023-08-01T11:39:45;98841.91;;;33.03;41.79
8051;BME280;4068;42.158;24.732;2023-08-01T11:42:16;98843.03;;;33.31;41.53
8051;BME280;4068;42.158;24.732;2023-08-01T11:44:43;98813.63;;;33.32;40.63
8051;BME280;4068;42.158;24.732;2023-08-01T11:47:15;98826.59;;;33.50;40.90
8051;BME280;4068;42.158;24.732;2023-08-01T11:49:48;98841.34;;;33.60;40.33
8051;BME280;4068;42.158;24.732;2023-08-01T11:52:28;98825.16;;;33.58;40.29
8051;BME280;4068;42.158;24.732;2023-08-01T11:54:54;98827.06;;;33.82;40.54
8051;BME280;4068;42.158;24.732;2023-08-01T11:57:22;98831.00;;;33.76;39.79
8051;BME280;4068;42.158;24.732;2023-08-01T11:59:50;98835.00;;;33.83;39.76
8051;BME280;4068;42.158;24.732;2023-08-01T12:02:25;98825.75;;;33.79;39.08
8051;BME280;4068;42.158;24.732;2023-08-01T12:04:52;98806.06;;;33.67;39.20
8051;BME280;4068;42.158;24.732;2023-08-01T12:07:19;98823.97;;;33.64;39.81
8051;BME280;4068;42.158;24.732;2023-08-01T12:09:55;98806.66;;;33.64;39.95
8051;BME280;4068;42.158;24.732;2023-08-01T12:12:20;98808.41;;;33.54;40.30
8051;BME280;4068;42.158;24.732;2023-08-01T12:14:46;98780.97;;;33.74;40.39
8051;BME280;4068;42.158;24.732;2023-08-01T12:17:11;98806.59;;;34.12;39.92
8051;BME280;4068;42.158;24.732;2023-08-01T12:19:37;98803.81;;;33.93;39.39
8051;BME280;4068;42.158;24.732;2023-08-01T12:22:02;98803.19;;;33.34;40.23
8051;BME280;4068;42.158;24.732;2023-08-01T12:24:28;98787.53;;;33.29;40.35
8051;BME280;4068;42.158;24.732;2023-08-01T12:26:53;98798.00;;;33.51;40.40
8051;BME280;4068;42.158;24.732;2023-08-01T12:29:18;98802.47;;;33.47;40.52
8051;BME280;4068;42.158;24.732;2023-08-01T12:31:44;98802.75;;;33.46;40.20
8051;BME280;4068;42.158;24.732;2023-08-01T12:34:11;98766.13;;;33.31;40.32
8051;BME280;4068;42.158;24.732;2023-08-01T12:36:36;98791.22;;;33.68;39.96
8051;BME280;4068;42.158;24.732;2023-08-01T12:39:02;98790.22;;;33.83;39.94
8051;BME280;4068;42.158;24.732;2023-08-01T12:41:27;98779.91;;;34.13;39.48
8051;BME280;4068;42.158;24.732;2023-08-01T12:43:53;98777.81;;;34.23;39.16
8051;BME280;4068;42.158;24.732;2023-08-01T12:46:18;98764.25;;;34.27;38.78
8051;BME280;4068;42.158;24.732;2023-08-01T12:48:44;98776.47;;;34.40;38.34
8051;BME280;4068;42.158;24.732;2023-08-01T12:51:09;98777.75;;;34.29;38.96
8051;BME280;4068;42.158;24.732;2023-08-01T12:53:35;98752.84;;;34.01;38.91
8051;BME280;4068;42.158;24.732;2023-08-01T12:56:00;98772.69;;;34.36;38.42
8051;BME280;4068;42.158;24.732;2023-08-01T12:58:26;98748.66;;;34.22;38.41
8051;BME280;4068;42.158;24.732;2023-08-01T13:00:51;98762.50;;;34.17;38.65
8051;BME280;4068;42.158;24.732;2023-08-01T13:03:17;98758.19;;;34.30;38.17
8051;BME280;4068;42.158;24.732;2023-08-01T13:05:42;98750.81;;;34.26;38.39
8051;BME280;4068;42.158;24.732;2023-08-01T13:08:08;98753.19;;;34.13;38.19